sensor_id;sensor_type;location;lat;lon;timestamp;pressure;altitude;pressure_sealevel;temperature;humidity
3544;BME280;1786;52.870;9.578;2023-07-13T00:01:53;100386.88;;;28.14;48.99
3544;BME280;1786;52.870;9.578;2023-07-13T00:04:22;100385.63;;;28.10;48.93
3544;BME280;1786;52.870;9.578;2023-07-13T00:06:49;100385.03;;;28.08;48.66
3544;BME280;1786;52.870;9.578;2023-07-13T00:09:17;100386.19;;;27.80;49.68
3544;BME280;1786;52.870;9.578;2023-07-13T00:11:45;100386.00;;;27.75;49.93
3544;BME280;1786;52.870;9.578;2023-07-13T00:14:14;100391.44;;;27.75;49.73
3544;BME280;1786;52.870;9.578;2023-07-13T00:16:42;100395.41;;;27.66;50.05
3544;BME280;1786;52.870;9.578;2023-07-13T00:19:13;100395.66;;;27.51;50.19
3544;BME280;1786;52.870;9.578;2023-07-13T00:21:41;100395.09;;;27.29;50.80
3544;BME280;1786;52.870;9.578;2023-07-13T00:24:12;100394.00;;;27.50;50.40
3544;BME280;1786;52.870;9.578;2023-07-13T00:26:42;100403.66;;;27.26;50.58
3544;BME280;1786;52.870;9.578;2023-07-13T00:29:12;100405.06;;;27.41;50.75
3544;BME280;1786;52.870;9.578;2023-07-13T00:31:39;100403.44;;;27.34;50.45
3544;BME280;1786;52.870;9.578;2023-07-13T00:34:06;100400.72;;;27.40;50.45
3544;BME280;1786;52.870;9.578;2023-07-13T00:36:34;100404.09;;;27.23;50.77
3544;BME280;1786;52.870;9.578;2023-07-13T00:39:00;100403.22;;;27.42;50.16
3544;BME280;1786;52.870;9.578;2023-07-13T00:41:27;100408.84;;;27.34;50.57
3544;BME280;1786;52.870;9.578;2023-07-13T00:43:55;100415.56;;;27.25;50.61
3544;BME280;1786;52.870;9.578;2023-07-13T00:46:30;100414.91;;;26.96;51.13
3544;BME280;1786;52.870;9.578;2023-07-13T00:49:01;100417.34;;;26.51;52.79
3544;BME280;1786;52.870;9.578;2023-07-13T00:51:34;100409.28;;;26.64;51.94
3544;BME280;1786;52.870;9.578;2023-07-13T00:54:05;100417.41;;;26.91;51.45
3544;BME280;1786;52.870;9.578;2023-07-13T00:56:33;100412.84;;;26.98;51.25
3544;BME280;1786;52.870;9.578;2023-07-13T00:59:03;100410.31;;;27.03;51.36
3544;BME280;1786;52.870;9.578;2023-07-13T01:01:31;100409.28;;;26.91;51.24
3544;BME280;1786;52.870;9.578;2023-07-13T01:03:58;100408.22;;;26.65;51.84
3544;BME280;1786;52.870;9.578;2023-07-13T01:06:25;100409.47;;;26.63;52.06
3544;BME280;1786;52.870;9.578;2023-07-13T01:08:51;100409.06;;;26.66;51.89
3544;BME280;1786;52.870;9.578;2023-07-13T01:11:20;100409.09;;;26.92;51.56
3544;BME280;1786;52.870;9.578;2023-07-13T01:13:49;100413.25;;;26.95;51.21
3544;BME280;1786;52.870;9.578;2023-07-13T01:16:25;100412.63;;;27.06;51.16
3544;BME280;1786;52.870;9.578;2023-07-13T01:18:53;100417.22;;;27.12;51.14
3544;BME280;1786;52.870;9.578;2023-07-13T01:21:21;100413.88;;;27.10;50.82
3544;BME280;1786;52.870;9.578;2023-07-13T01:23:47;100408.66;;;27.15;50.89
3544;BME280;1786;52.870;9.578;2023-07-13T01:26:15;100417.41;;;27.17;50.87
3544;BME280;1786;52.870;9.578;2023-07-13T01:28:41;100412.81;;;27.31;50.68
3544;BME280;1786;52.870;9.578;2023-07-13T01:31:08;100408.66;;;27.35;50.45
3544;BME280;1786;52.870;9.578;2023-07-13T01:33:37;100405.75;;;27.37;50.41
3544;BME280;1786;52.870;9.578;2023-07-13T01:36:07;100407.41;;;27.38;50.17
3544;BME280;1786;52.870;9.578;2023-07-13T01:38:36;100404.47;;;27.39;50.31
3544;BME280;1786;52.870;9.578;2023-07-13T01:41:03;100400.31;;;27.10;51.00
3544;BME280;1786;52.870;9.578;2023-07-13T01:43:30;100407.84;;;27.22;50.88
3544;BME280;1786;52.870;9.578;2023-07-13T01:45:56;100404.50;;;27.19;51.45
3544;BME280;1786;52.870;9.578;2023-07-13T01:48:43;100404.47;;;27.06;51.72
3544;BME280;1786;52.870;9.578;2023-07-13T01:51:10;100407.81;;;27.08;51.77
3544;BME280;1786;52.870;9.578;2023-07-13T01:53:37;100412.00;;;27.11;51.62
3544;BME280;1786;52.870;9.578;2023-07-13T01:56:04;100402.38;;;27.08;51.39
3544;BME280;1786;52.870;9.578;2023-07-13T01:58:30;100404.50;;;27.00;51.95
3544;BME280;1786;52.870;9.578;2023-07-13T02:00:57;100402.38;;;27.08;51.68
3544;BME280;1786;52.870;9.578;2023-07-13T02:03:24;100402.81;;;27.05;51.56
3544;BME280;1786;52.870;9.578;2023-07-13T02:05:50;100404.28;;;27.21;51.02
3544;BME280;1786;52.870;9.578;2023-07-13T02:08:17;100404.88;;;27.43;50.45
3544;BME280;1786;52.870;9.578;2023-07-13T02:10:44;100398.38;;;27.57;50.25
3544;BME280;1786;52.870;9.578;2023-07-13T02:13:11;100406.31;;;27.52;50.00
3544;BME280;1786;52.870;9.578;2023-07-13T02:15:40;100416.16;;;27.33;50.12
3544;BME280;1786;52.870;9.578;2023-07-13T02:18:07;100415.56;;;27.05;50.75
3544;BME280;1786;52.870;9.578;2023-07-13T02:20:35;100414.09;;;26.89;51.32
3544;BME280;1786;52.870;9.578;2023-07-13T02:23:02;100412.41;;;27.08;50.94
3544;BME280;1786;52.870;9.578;2023-07-13T02:25:29;100406.16;;;27.01;50.54
3544;BME280;1786;52.870;9.578;2023-07-13T02:27:55;100405.09;;;26.68;51.37
3544;BME280;1786;52.870;9.578;2023-07-13T02:30:22;100398.22;;;26.52;51.58
3544;BME280;1786;52.870;9.578;2023-07-13T02:32:53;100405.31;;;26.60;51.58
3544;BME280;1786;52.870;9.578;2023-07-13T02:35:20;100409.06;;;26.66;51.17
3544;BME280;1786;52.870;9.578;2023-07-13T02:37:47;100404.88;;;26.63;51.37
3544;BME280;1786;52.870;9.578;2023-07-13T02:40:13;100404.06;;;26.56;51.39
3544;BME280;1786;52.870;9.578;2023-07-13T02:42:40;100399.06;;;26.60;51.84
3544;BME280;1786;52.870;9.578;2023-07-13T02:45:08;100405.31;;;26.80;51.06
3544;BME280;1786;52.870;9.578;2023-07-13T02:47:35;100399.47;;;26.70;51.23
3544;BME280;1786;52.870;9.578;2023-07-13T02:50:03;100393.66;;;26.66;51.03
3544;BME280;1786;52.870;9.578;2023-07-13T02:52:30;100389.06;;;26.53;51.37
3544;BME280;1786;52.870;9.578;2023-07-13T02:54:57;100407.22;;;26.66;50.89
3544;BME280;1786;52.870;9.578;2023-07-13T02:57:24;100397.94;;;26.41;51.49
3544;BME280;1786;52.870;9.578;2023-07-13T02:59:51;100413.44;;;26.53;51.06
3544;BME280;1786;52.870;9.578;2023-07-13T03:02:18;100414.28;;;26.67;50.69
3544;BME280;1786;52.870;9.578;2023-07-13T03:04:44;100410.03;;;26.31;51.10
3544;BME280;1786;52.870;9.578;2023-07-13T03:07:11;100411.09;;;26.37;51.09
3544;BME280;1786;52.870;9.578;2023-07-13T03:09:41;100415.22;;;26.33;51.17
3544;BME280;1786;52.870;9.578;2023-07-13T03:12:08;100422.72;;;26.24;51.27
3544;BME280;1786;52.870;9.578;2023-07-13T03:14:35;100417.06;;;25.71;52.69
3544;BME280;1786;52.870;9.578;2023-07-13T03:17:05;100417.88;;;26.06;51.95
3544;BME280;1786;52.870;9.578;2023-07-13T03:19:34;100419.13;;;25.69;52.83
3544;BME280;1786;52.870;9.578;2023-07-13T03:22:01;100420.88;;;25.83;52.09
3544;BME280;1786;52.870;9.578;2023-07-13T03:24:28;100421.66;;;25.71;52.45
3544;BME280;1786;52.870;9.578;2023-07-13T03:26:56;100422.06;;;25.39;53.56
3544;BME280;1786;52.870;9.578;2023-07-13T03:29:23;100420.59;;;25.30;53.23
3544;BME280;1786;52.870;9.578;2023-07-13T03:31:50;100430.25;;;25.53;52.83
3544;BME280;1786;52.870;9.578;2023-07-13T03:34:18;100426.22;;;25.70;52.28
3544;BME280;1786;52.870;9.578;2023-07-13T03:36:44;100426.56;;;25.25;53.33
3544;BME280;1786;52.870;9.578;2023-07-13T03:39:12;100426.19;;;25.63;52.62
3544;BME280;1786;52.870;9.578;2023-07-13T03:41:45;100429.97;;;25.69;52.38
3544;BME280;1786;52.870;9.578;2023-07-13T03:44:12;100431.75;;;25.90;52.53
3544;BME280;1786;52.870;9.578;2023-07-13T03:46:39;100436.66;;;25.73;52.35
3544;BME280;1786;52.870;9.578;2023-07-13T03:49:06;100434.66;;;25.54;53.34
3544;BME280;1786;52.870;9.578;2023-07-13T03:51:33;100437.13;;;25.48;53.29
3544;BME280;1786;52.870;9.578;2023-07-13T03:54:00;100429.97;;;25.69;52.66
3544;BME280;1786;52.870;9.578;2023-07-13T03:56:27;100432.44;;;25.64;52.88
3544;BME280;1786;52.870;9.578;2023-07-13T03:58:54;100430.97;;;26.03;52.14
3544;BME280;1786;52.870;9.578;2023-07-13T04:01:23;100435.53;;;25.96;52.42
3544;BME280;1786;52.870;9.578;2023-07-13T04:03:51;100439.53;;;26.13;52.23
3544;BME280;1786;52.870;9.578;2023-07-13T04:06:25;100444.41;;;26.24;52.00
3544;BME280;1786;52.870;9.578;2023-07-13T04:08:55;100437.34;;;26.37;51.24
3544;BME280;1786;52.870;9.578;2023-07-13T04:11:23;100435.06;;;26.33;51.44
3544;BME280;1786;52.870;9.578;2023-07-13T04:13:51;100440.97;;;26.57;51.18
3544;BME280;1786;52.870;9.578;2023-07-13T04:16:18;100434.63;;;26.43;51.12
3544;BME280;1786;52.870;9.578;2023-07-13T04:18:46;100441.56;;;26.52;50.86
3544;BME280;1786;52.870;9.578;2023-07-13T04:21:14;100441.75;;;25.89;51.97
3544;BME280;1786;52.870;9.578;2023-07-13T04:23:41;100441.47;;;26.19;52.09
3544;BME280;1786;52.870;9.578;2023-07-13T04:26:08;100445.69;;;26.42;51.26
3544;BME280;1786;52.870;9.578;2023-07-13T04:28:35;100440.28;;;26.48;51.42
3544;BME280;1786;52.870;9.578;2023-07-13T04:31:02;100444.50;;;26.71;50.89
3544;BME280;1786;52.870;9.578;2023-07-13T04:33:30;100447.03;;;26.59;50.59
3544;BME280;1786;52.870;9.578;2023-07-13T04:35:57;100448.69;;;26.67;50.61
3544;BME280;1786;52.870;9.578;2023-07-13T04:38:26;100444.97;;;27.08;49.95
3544;BME280;1786;52.870;9.578;2023-07-13T04:40:58;100451.88;;;27.24;49.72
3544;BME280;1786;52.870;9.578;2023-07-13T04:43:26;100449.53;;;27.54;49.11
3544;BME280;1786;52.870;9.578;2023-07-13T04:45:53;100443.72;;;27.30;49.28
3544;BME280;1786;52.870;9.578;2023-07-13T04:48:21;100445.59;;;27.03;49.29
3544;BME280;1786;52.870;9.578;2023-07-13T04:50:54;100446.66;;;27.22;49.31
3544;BME280;1786;52.870;9.578;2023-07-13T04:53:21;100448.69;;;27.47;48.77
3544;BME280;1786;52.870;9.578;2023-07-13T04:55:50;100445.81;;;27.35;48.97
3544;BME280;1786;52.870;9.578;2023-07-13T04:58:18;100448.28;;;27.16;49.55
3544;BME280;1786;52.870;9.578;2023-07-13T05:00:44;100452.88;;;27.16;49.45
3544;BME280;1786;52.870;9.578;2023-07-13T05:03:11;100455.19;;;26.99;49.75
3544;BME280;1786;52.870;9.578;2023-07-13T05:05:38;100462.50;;;27.18;49.49
3544;BME280;1786;52.870;9.578;2023-07-13T05:08:05;100453.94;;;26.95;50.40
3544;BME280;1786;52.870;9.578;2023-07-13T05:10:35;100469.59;;;27.33;49.78
3544;BME280;1786;52.870;9.578;2023-07-13T05:13:02;100462.72;;;27.30;49.66
3544;BME280;1786;52.870;9.578;2023-07-13T05:15:29;100461.66;;;26.98;49.71
3544;BME280;1786;52.870;9.578;2023-07-13T05:17:56;100474.19;;;27.52;49.14
3544;BME280;1786;52.870;9.578;2023-07-13T05:20:23;100469.09;;;27.76;48.93
3544;BME280;1786;52.870;9.578;2023-07-13T05:22:49;100466.88;;;27.53;49.16
3544;BME280;1786;52.870;9.578;2023-07-13T05:25:17;100467.84;;;27.92;49.14
3544;BME280;1786;52.870;9.578;2023-07-13T05:27:44;100460.78;;;29.06;47.65
3544;BME280;1786;52.870;9.578;2023-07-13T05:30:13;100467.84;;;31.03;44.19
3544;BME280;1786;52.870;9.578;2023-07-13T05:32:39;100481.75;;;33.10;42.12
3544;BME280;1786;52.870;9.578;2023-07-13T05:35:07;100483.84;;;34.15;38.99
3544;BME280;1786;52.870;9.578;2023-07-13T05:37:37;100492.06;;;36.18;36.66
3544;BME280;1786;52.870;9.578;2023-07-13T05:40:04;100501.84;;;37.59;34.31
3544;BME280;1786;52.870;9.578;2023-07-13T05:42:31;100511.94;;;38.60;33.60
3544;BME280;1786;52.870;9.578;2023-07-13T05:44:57;100508.34;;;39.33;32.23
3544;BME280;1786;52.870;9.578;2023-07-13T05:47:25;100519.09;;;40.55;31.45
3544;BME280;1786;52.870;9.578;2023-07-13T05:49:52;100529.84;;;40.80;30.08
3544;BME280;1786;52.870;9.578;2023-07-13T05:52:19;100517.19;;;41.40;30.01
3544;BME280;1786;52.870;9.578;2023-07-13T05:54:46;100522.59;;;41.78;29.54
3544;BME280;1786;52.870;9.578;2023-07-13T05:57:14;100530.59;;;42.48;28.48
3544;BME280;1786;52.870;9.578;2023-07-13T05:59:41;100530.72;;;42.29;28.56
3544;BME280;1786;52.870;9.578;2023-07-13T06:02:09;100536.88;;;42.40;29.02
3544;BME280;1786;52.870;9.578;2023-07-13T06:04:37;100533.50;;;42.15;28.62
3544;BME280;1786;52.870;9.578;2023-07-13T06:07:04;100541.13;;;42.38;28.31
3544;BME280;1786;52.870;9.578;2023-07-13T06:09:32;100542.16;;;43.00;28.38
3544;BME280;1786;52.870;9.578;2023-07-13T06:11:59;100544.72;;;42.24;28.51
3544;BME280;1786;52.870;9.578;2023-07-13T06:14:25;100531.88;;;42.65;27.82
3544;BME280;1786;52.870;9.578;2023-07-13T06:16:53;100547.72;;;43.54;27.32
3544;BME280;1786;52.870;9.578;2023-07-13T06:19:20;100548.00;;;43.44;27.74
3544;BME280;1786;52.870;9.578;2023-07-13T06:21:47;100549.28;;;43.69;26.73
3544;BME280;1786;52.870;9.578;2023-07-13T06:24:14;100545.53;;;44.22;27.13
3544;BME280;1786;52.870;9.578;2023-07-13T06:26:41;100552.34;;;44.56;26.79
3544;BME280;1786;52.870;9.578;2023-07-13T06:29:07;100556.09;;;44.43;26.69
3544;BME280;1786;52.870;9.578;2023-07-13T06:31:34;100540.00;;;42.97;27.81
3544;BME280;1786;52.870;9.578;2023-07-13T06:34:01;100546.91;;;43.22;27.92
3544;BME280;1786;52.870;9.578;2023-07-13T06:36:28;100547.38;;;43.78;27.48
3544;BME280;1786;52.870;9.578;2023-07-13T06:38:55;100549.41;;;43.10;28.11
3544;BME280;1786;52.870;9.578;2023-07-13T06:41:22;100551.41;;;43.32;27.73
3544;BME280;1786;52.870;9.578;2023-07-13T06:43:49;100545.59;;;43.20;27.71
3544;BME280;1786;52.870;9.578;2023-07-13T06:46:16;100552.28;;;43.81;27.42
3544;BME280;1786;52.870;9.578;2023-07-13T06:48:43;100552.75;;;43.43;27.40
3544;BME280;1786;52.870;9.578;2023-07-13T06:51:10;100557.03;;;44.21;27.02
3544;BME280;1786;52.870;9.578;2023-07-13T06:53:37;100562.91;;;44.19;26.95
3544;BME280;1786;52.870;9.578;2023-07-13T06:56:04;100564.28;;;44.48;26.70
3544;BME280;1786;52.870;9.578;2023-07-13T06:58:33;100551.94;;;44.14;26.67
3544;BME280;1786;52.870;9.578;2023-07-13T07:01:01;100553.94;;;43.20;26.85
3544;BME280;1786;52.870;9.578;2023-07-13T07:03:27;100555.88;;;43.19;27.99
3544;BME280;1786;52.870;9.578;2023-07-13T07:06:06;100554.28;;;42.82;27.32
3544;BME280;1786;52.870;9.578;2023-07-13T07:08:38;100560.59;;;43.41;27.19
3544;BME280;1786;52.870;9.578;2023-07-13T07:11:08;100554.22;;;42.96;28.20
3544;BME280;1786;52.870;9.578;2023-07-13T07:13:35;100554.72;;;43.74;27.61
3544;BME280;1786;52.870;9.578;2023-07-13T07:16:01;100547.50;;;44.13;27.15
3544;BME280;1786;52.870;9.578;2023-07-13T07:18:28;100558.72;;;44.65;26.96
3544;BME280;1786;52.870;9.578;2023-07-13T07:20:55;100562.09;;;44.19;26.89
3544;BME280;1786;52.870;9.578;2023-07-13T07:23:22;100555.28;;;44.60;26.50
3544;BME280;1786;52.870;9.578;2023-07-13T07:25:49;100557.69;;;43.78;28.01
3544;BME280;1786;52.870;9.578;2023-07-13T07:28:16;100561.13;;;44.32;26.97
3544;BME280;1786;52.870;9.578;2023-07-13T07:30:52;100557.34;;;42.94;28.03
3544;BME280;1786;52.870;9.578;2023-07-13T07:33:24;100556.09;;;42.50;28.41
3544;BME280;1786;52.870;9.578;2023-07-13T07:35:51;100549.56;;;41.44;29.22
3544;BME280;1786;52.870;9.578;2023-07-13T07:38:21;100555.00;;;40.65;30.51
3544;BME280;1786;52.870;9.578;2023-07-13T07:40:51;100553.34;;;40.45;30.83
3544;BME280;1786;52.870;9.578;2023-07-13T07:43:21;100546.75;;;40.79;29.72
3544;BME280;1786;52.870;9.578;2023-07-13T07:45:48;100550.88;;;41.66;29.60
3544;BME280;1786;52.870;9.578;2023-07-13T07:48:14;100549.03;;;42.44;29.31
3544;BME280;1786;52.870;9.578;2023-07-13T07:50:41;100552.63;;;41.76;29.48
3544;BME280;1786;52.870;9.578;2023-07-13T07:53:08;100559.69;;;41.54;29.33
3544;BME280;1786;52.870;9.578;2023-07-13T07:55:36;100546.72;;;40.60;29.17
3544;BME280;1786;52.870;9.578;2023-07-13T07:58:07;100539.31;;;39.35;31.31
3544;BME280;1786;52.870;9.578;2023-07-13T08:00:54;100546.28;;;39.27;31.42
3544;BME280;1786;52.870;9.578;2023-07-13T08:03:23;100546.81;;;38.45;32.27
3544;BME280;1786;52.870;9.578;2023-07-13T08:05:53;100541.78;;;38.03;33.00
3544;BME280;1786;52.870;9.578;2023-07-13T08:08:24;100530.22;;;37.85;33.17
3544;BME280;1786;52.870;9.578;2023-07-13T08:10:51;100540.69;;;36.66;34.42
3544;BME280;1786;52.870;9.578;2023-07-13T08:13:23;100532.31;;;36.40;34.96
3544;BME280;1786;52.870;9.578;2023-07-13T08:15:49;100526.50;;;35.73;35.82
3544;BME280;1786;52.870;9.578;2023-07-13T08:18:17;100515.63;;;35.14;37.30
3544;BME280;1786;52.870;9.578;2023-07-13T08:20:44;100509.13;;;35.30;36.63
3544;BME280;1786;52.870;9.578;2023-07-13T08:23:11;100513.19;;;35.23;36.62
3544;BME280;1786;52.870;9.578;2023-07-13T08:25:39;100511.75;;;36.58;36.17
3544;BME280;1786;52.870;9.578;2023-07-13T08:28:05;100515.41;;;37.35;35.38
3544;BME280;1786;52.870;9.578;2023-07-13T08:30:33;100532.97;;;37.85;34.60
3544;BME280;1786;52.870;9.578;2023-07-13T08:33:00;100536.38;;;38.32;34.37
3544;BME280;1786;52.870;9.578;2023-07-13T08:35:28;100549.38;;;38.31;34.30
3544;BME280;1786;52.870;9.578;2023-07-13T08:37:54;100542.97;;;37.56;34.03
3544;BME280;1786;52.870;9.578;2023-07-13T08:40:25;100551.72;;;37.99;33.52
3544;BME280;1786;52.870;9.578;2023-07-13T08:42:55;100546.72;;;38.61;32.36
3544;BME280;1786;52.870;9.578;2023-07-13T08:45:44;100549.38;;;38.31;32.75
3544;BME280;1786;52.870;9.578;2023-07-13T08:48:26;100563.16;;;38.91;32.67
3544;BME280;1786;52.870;9.578;2023-07-13T08:51:02;100552.69;;;38.34;32.62
3544;BME280;1786;52.870;9.578;2023-07-13T08:53:37;100553.34;;;38.05;32.99
3544;BME280;1786;52.870;9.578;2023-07-13T08:56:11;100553.78;;;38.32;33.54
3544;BME280;1786;52.870;9.578;2023-07-13T08:58:41;100551.75;;;37.78;32.72
3544;BME280;1786;52.870;9.578;2023-07-13T09:01:17;100552.81;;;37.82;33.09
3544;BME280;1786;52.870;9.578;2023-07-13T09:04:06;100551.16;;;36.89;33.27
3544;BME280;1786;52.870;9.578;2023-07-13T09:09:51;100542.44;;;34.80;36.13
3544;BME280;1786;52.870;9.578;2023-07-13T09:15:34;100543.63;;;35.11;36.30
3544;BME280;1786;52.870;9.578;2023-07-13T09:18:11;100548.47;;;35.04;36.99
3544;BME280;1786;52.870;9.578;2023-07-13T09:20:45;100541.22;;;35.57;35.84
3544;BME280;1786;52.870;9.578;2023-07-13T09:23:20;100547.13;;;36.29;35.06
3544;BME280;1786;52.870;9.578;2023-07-13T09:25:51;100567.66;;;36.64;34.47
3544;BME280;1786;52.870;9.578;2023-07-13T09:28:25;100556.16;;;36.82;35.49
3544;BME280;1786;52.870;9.578;2023-07-13T09:31:02;100559.78;;;36.20;35.67
3544;BME280;1786;52.870;9.578;2023-07-13T09:33:49;100555.59;;;36.85;34.81
3544;BME280;1786;52.870;9.578;2023-07-13T09:36:33;100561.72;;;37.54;34.11
3544;BME280;1786;52.870;9.578;2023-07-13T09:41:42;100566.91;;;37.04;34.34
3544;BME280;1786;52.870;9.578;2023-07-13T09:44:13;100565.84;;;37.41;34.67
3544;BME280;1786;52.870;9.578;2023-07-13T09:46:51;100564.44;;;37.49;34.00
3544;BME280;1786;52.870;9.578;2023-07-13T09:49:23;100560.03;;;37.68;34.01
3544;BME280;1786;52.870;9.578;2023-07-13T09:52:01;100559.50;;;37.45;32.79
3544;BME280;1786;52.870;9.578;2023-07-13T09:54:33;100558.94;;;37.33;33.74
3544;BME280;1786;52.870;9.578;2023-07-13T09:57:03;100564.47;;;37.38;33.78
3544;BME280;1786;52.870;9.578;2023-07-13T09:59:37;100562.63;;;36.45;34.15
3544;BME280;1786;52.870;9.578;2023-07-13T10:02:31;100573.34;;;36.42;34.26
3544;BME280;1786;52.870;9.578;2023-07-13T10:05:10;100567.31;;;36.45;34.16
3544;BME280;1786;52.870;9.578;2023-07-13T10:07:39;100569.69;;;36.26;34.24
3544;BME280;1786;52.870;9.578;2023-07-13T10:10:19;100571.25;;;36.06;35.08
3544;BME280;1786;52.870;9.578;2023-07-13T10:12:48;100564.53;;;35.17;36.30
3544;BME280;1786;52.870;9.578;2023-07-13T10:15:23;100560.94;;;35.49;35.13
3544;BME280;1786;52.870;9.578;2023-07-13T10:17:55;100564.03;;;35.58;35.16
3544;BME280;1786;52.870;9.578;2023-07-13T10:20:26;100576.81;;;35.74;34.96
3544;BME280;1786;52.870;9.578;2023-07-13T10:23:02;100567.00;;;34.92;35.91
3544;BME280;1786;52.870;9.578;2023-07-13T10:25:34;100565.75;;;35.31;35.73
3544;BME280;1786;52.870;9.578;2023-07-13T10:28:09;100555.22;;;35.98;35.29
3544;BME280;1786;52.870;9.578;2023-07-13T10:30:40;100568.25;;;36.08;34.58
3544;BME280;1786;52.870;9.578;2023-07-13T10:33:11;100569.81;;;35.56;35.53
3544;BME280;1786;52.870;9.578;2023-07-13T10:35:42;100561.06;;;35.59;34.18
3544;BME280;1786;52.870;9.578;2023-07-13T10:38:13;100560.91;;;35.76;34.77
3544;BME280;1786;52.870;9.578;2023-07-13T10:40:56;100570.88;;;35.23;34.59
3544;BME280;1786;52.870;9.578;2023-07-13T10:43:33;100578.88;;;35.24;34.91
3544;BME280;1786;52.870;9.578;2023-07-13T10:46:06;100568.63;;;35.47;34.66
3544;BME280;1786;52.870;9.578;2023-07-13T10:48:34;100567.16;;;36.09;34.82
3544;BME280;1786;52.870;9.578;2023-07-13T10:51:05;100574.16;;;36.37;32.62
3544;BME280;1786;52.870;9.578;2023-07-13T10:53:35;100567.38;;;35.27;33.82
3544;BME280;1786;52.870;9.578;2023-07-13T10:56:05;100563.81;;;35.59;33.24
3544;BME280;1786;52.870;9.578;2023-07-13T10:58:38;100574.03;;;35.37;33.72
3544;BME280;1786;52.870;9.578;2023-07-13T11:01:17;100568.06;;;35.45;33.95
3544;BME280;1786;52.870;9.578;2023-07-13T11:03:50;100576.06;;;35.84;34.32
3544;BME280;1786;52.870;9.578;2023-07-13T11:06:39;100563.09;;;35.74;33.24
3544;BME280;1786;52.870;9.578;2023-07-13T11:09:33;100570.53;;;36.31;34.12
3544;BME280;1786;52.870;9.578;2023-07-13T11:12:01;100573.63;;;36.40;32.05
3544;BME280;1786;52.870;9.578;2023-07-13T11:14:37;100569.38;;;36.95;32.05
3544;BME280;1786;52.870;9.578;2023-07-13T11:17:33;100576.41;;;36.55;32.73
3544;BME280;1786;52.870;9.578;2023-07-13T11:27:51;100569.94;;;35.71;33.28
3544;BME280;1786;52.870;9.578;2023-07-13T11:35:30;100562.16;;;35.26;34.35
3544;BME280;1786;52.870;9.578;2023-07-13T11:37:58;100566.72;;;35.15;34.09
3544;BME280;1786;52.870;9.578;2023-07-13T11:40:27;100564.50;;;34.90;34.96
3544;BME280;1786;52.870;9.578;2023-07-13T11:43:06;100564.13;;;35.36;34.87
3544;BME280;1786;52.870;9.578;2023-07-13T11:45:33;100557.69;;;34.93;34.53
3544;BME280;1786;52.870;9.578;2023-07-13T11:48:19;100567.81;;;35.14;34.35
3544;BME280;1786;52.870;9.578;2023-07-13T11:51:05;100568.41;;;35.96;33.99
3544;BME280;1786;52.870;9.578;2023-07-13T11:53:44;100569.75;;;35.88;33.60
3544;BME280;1786;52.870;9.578;2023-07-13T11:56:13;100571.19;;;36.01;33.69
3544;BME280;1786;52.870;9.578;2023-07-13T11:58:41;100560.69;;;35.55;33.67
3544;BME280;1786;52.870;9.578;2023-07-13T12:01:26;100568.34;;;35.86;32.77
3544;BME280;1786;52.870;9.578;2023-07-13T12:03:54;100571.91;;;36.29;32.64
3544;BME280;1786;52.870;9.578;2023-07-13T12:06:26;100581.06;;;35.92;32.75
3544;BME280;1786;52.870;9.578;2023-07-13T12:08:59;100579.66;;;35.20;32.50
3544;BME280;1786;52.870;9.578;2023-07-13T12:11:27;100577.78;;;35.25;33.91
3544;BME280;1786;52.870;9.578;2023-07-13T12:13:54;100576.75;;;35.04;33.66
3544;BME280;1786;52.870;9.578;2023-07-13T12:16:30;100593.44;;;35.25;34.38
3544;BME280;1786;52.870;9.578;2023-07-13T12:19:01;100600.81;;;34.26;33.24
3544;BME280;1786;52.870;9.578;2023-07-13T12:21:38;100607.78;;;33.61;33.08
3544;BME280;1786;52.870;9.578;2023-07-13T12:24:14;100619.41;;;33.85;33.74
3544;BME280;1786;52.870;9.578;2023-07-13T12:26:41;100607.28;;;33.64;34.48
3544;BME280;1786;52.870;9.578;2023-07-13T12:29:15;100612.16;;;32.47;34.78
3544;BME280;1786;52.870;9.578;2023-07-13T12:31:45;100621.16;;;32.31;35.70
3544;BME280;1786;52.870;9.578;2023-07-13T12:41:45;100669.09;;;29.65;42.65
3544;BME280;1786;52.870;9.578;2023-07-13T12:44:15;100649.94;;;29.47;42.17
3544;BME280;1786;52.870;9.578;2023-07-13T12:46:58;100652.16;;;29.25;41.86
3544;BME280;1786;52.870;9.578;2023-07-13T12:49:29;100671.06;;;29.13;42.73
3544;BME280;1786;52.870;9.578;2023-07-13T12:51:59;100670.66;;;28.38;46.05
3544;BME280;1786;52.870;9.578;2023-07-13T12:54:28;100673.44;;;28.89;45.84
3544;BME280;1786;52.870;9.578;2023-07-13T12:56:57;100670.38;;;29.24;46.22
3544;BME280;1786;52.870;9.578;2023-07-13T12:59:29;100681.72;;;28.63;46.73
3544;BME280;1786;52.870;9.578;2023-07-13T13:01:56;100669.03;;;28.95;46.53
3544;BME280;1786;52.870;9.578;2023-07-13T13:04:23;100665.53;;;28.81;46.11
3544;BME280;1786;52.870;9.578;2023-07-13T13:07:01;100651.63;;;28.38;46.92
3544;BME280;1786;52.870;9.578;2023-07-13T13:09:28;100662.81;;;28.81;46.05
3544;BME280;1786;52.870;9.578;2023-07-13T13:11:54;100674.59;;;28.62;45.77
3544;BME280;1786;52.870;9.578;2023-07-13T13:14:21;100673.25;;;28.84;44.94
3544;BME280;1786;52.870;9.578;2023-07-13T13:16:49;100669.84;;;29.09;45.03
3544;BME280;1786;52.870;9.578;2023-07-13T13:19:19;100680.09;;;29.45;45.07
3544;BME280;1786;52.870;9.578;2023-07-13T13:21:48;100687.38;;;29.13;44.82
3544;BME280;1786;52.870;9.578;2023-07-13T13:24:21;100689.56;;;28.91;45.61
3544;BME280;1786;52.870;9.578;2023-07-13T13:26:49;100693.63;;;29.20;45.62
3544;BME280;1786;52.870;9.578;2023-07-13T13:29:19;100680.63;;;29.29;44.84
3544;BME280;1786;52.870;9.578;2023-07-13T13:31:47;100696.00;;;29.10;45.68
3544;BME280;1786;52.870;9.578;2023-07-13T13:34:16;100709.78;;;28.23;45.04
3544;BME280;1786;52.870;9.578;2023-07-13T13:36:44;100694.69;;;28.47;44.78
3544;BME280;1786;52.870;9.578;2023-07-13T13:39:20;100700.66;;;28.89;43.79
3544;BME280;1786;52.870;9.578;2023-07-13T13:41:50;100699.88;;;29.27;43.50
3544;BME280;1786;52.870;9.578;2023-07-13T13:44:18;100705.47;;;29.77;42.50
3544;BME280;1786;52.870;9.578;2023-07-13T13:46:47;100708.28;;;29.58;42.66
3544;BME280;1786;52.870;9.578;2023-07-13T13:49:17;100700.84;;;29.78;42.05
3544;BME280;1786;52.870;9.578;2023-07-13T13:51:45;100705.41;;;29.84;42.51
3544;BME280;1786;52.870;9.578;2023-07-13T13:54:16;100708.84;;;29.98;42.73